Weather at Lester B. Pearson International Airport

Public forecast

Using degrees Celsius for public forecast. Weather courtesy of forecast.io.

Current aviation weather report (METAR) for Lester B. Pearson International Airport

Retrieved 2022/08/17 16:00 UTC (21 seconds ago):

CYYZ 171600Z VRB05KT 15SM SCT046 BKN240 27/14 A3008 RMK CU3CI3 SLP185 DENSITY ALT 1900FT

Aviation forecast (TAF) for Lester B. Pearson International Airport

Retrieved 2022/08/17 15:43 UTC (17 minutes ago):

TAF CYYZ 171440Z 1715/1818 03008KT P6SM SCT180 BECMG 1715/1717 12008KT FM171700 12008KT P6SM BKN060 BKN090 TEMPO 1717/1802 P6SM -SHRA PROB30 1717/1802 VRB15G25KT 2SM +TSRA BR SCT030 OVC050CB FM180200 35010KT P6SM FEW080 SCT120 FM181600 32008KT P6SM SCT060 PROB30 1817/1818 VRB15G30KT 2SM TSRA BR SCT030 BKN050CB RMK NXT FCST BY 171800Z